createdAt,value
2022-09-15T00:02:25.042Z,99441.72
2022-09-15T00:04:51.636Z,99438.25
2022-09-15T00:07:18.179Z,99432.69
2022-09-15T00:09:44.672Z,99435.63
2022-09-15T00:12:11.653Z,99433.75
2022-09-15T00:14:38.205Z,99438.38
2022-09-15T00:17:04.791Z,99430.91
2022-09-15T00:19:31.359Z,99442.00
2022-09-15T00:21:57.844Z,99441.63
2022-09-15T00:24:24.527Z,99451.03
2022-09-15T00:26:51.070Z,99451.50
2022-09-15T00:29:17.613Z,99452.50
2022-09-15T00:31:44.239Z,99451.84
2022-09-15T00:34:12.843Z,99455.25
2022-09-15T00:36:40.135Z,99455.25
2022-09-15T00:39:06.679Z,99458.22
2022-09-15T00:41:34.142Z,99447.59
2022-09-15T00:44:23.738Z,99454.91
2022-09-15T00:47:15.242Z,99462.41
2022-09-15T00:49:43.467Z,99455.44
2022-09-15T00:52:14.197Z,99448.66
2022-09-15T00:54:50.940Z,99455.09
2022-09-15T00:57:35.481Z,99456.59
2022-09-15T01:00:06.221Z,99456.22
2022-09-15T01:02:35.062Z,99459.19
2022-09-15T01:05:06.858Z,99452.91
2022-09-15T01:07:41.780Z,99453.44
2022-09-15T01:10:14.693Z,99458.47
2022-09-15T01:12:41.946Z,99462.19
2022-09-15T01:15:09.130Z,99452.19
2022-09-15T01:18:07.570Z,99450.31
2022-09-15T01:20:52.035Z,99456.53
2022-09-15T01:23:37.055Z,99449.56
2022-09-15T01:26:28.267Z,99454.31
2022-09-15T01:29:21.995Z,99461.31
2022-09-15T01:32:34.509Z,99449.31
2022-09-15T01:35:22.287Z,99443.34
2022-09-15T01:38:08.857Z,99457.06
2022-09-15T01:40:41.507Z,99456.75
2022-09-15T01:43:10.475Z,99455.69
2022-09-15T01:45:42.051Z,99459.00
2022-09-15T01:48:09.448Z,99453.97
2022-09-15T01:50:43.171Z,99460.84
2022-09-15T01:53:15.419Z,99457.31
2022-09-15T01:55:48.836Z,99455.69
2022-09-15T01:58:15.458Z,99456.38
2022-09-15T02:00:48.120Z,99448.72
2022-09-15T02:03:22.890Z,99458.56
2022-09-15T02:06:02.637Z,99459.44
2022-09-15T02:08:38.089Z,99467.72
2022-09-15T02:11:12.916Z,99471.34
2022-09-15T02:13:56.208Z,99473.53
2022-09-15T02:16:25.650Z,99471.94
2022-09-15T02:19:10.680Z,99473.72
2022-09-15T02:21:53.178Z,99466.41
2022-09-15T02:24:26.665Z,99467.03
2022-09-15T02:26:55.196Z,99474.97
2022-09-15T02:29:26.062Z,99468.59
2022-09-15T02:31:56.231Z,99472.66
2022-09-15T02:34:30.571Z,99463.31
2022-09-15T02:36:57.969Z,99456.59
2022-09-15T02:39:30.829Z,99458.88
2022-09-15T02:41:59.595Z,99457.72
2022-09-15T02:44:26.231Z,99463.28
2022-09-15T02:46:52.739Z,99464.84
2022-09-15T02:49:20.047Z,99463.94
2022-09-15T02:51:46.546Z,99467.66
2022-09-15T02:54:13.384Z,99465.53
2022-09-15T02:56:40.969Z,99474.09
2022-09-15T02:59:07.545Z,99476.50
2022-09-15T03:01:34.723Z,99478.84
2022-09-15T03:04:03.662Z,99474.59
2022-09-15T03:06:34.436Z,99473.66
2022-09-15T03:09:04.791Z,99464.59
2022-09-15T03:11:31.605Z,99466.72
2022-09-15T03:14:04.612Z,99469.94
2022-09-15T03:16:34.587Z,99467.59
2022-09-15T03:19:01.926Z,99468.16
2022-09-15T03:21:29.580Z,99463.53
2022-09-15T03:23:58.963Z,99468.81
2022-09-15T03:26:25.982Z,99465.34
2022-09-15T03:28:52.517Z,99460.06
2022-09-15T03:31:19.755Z,99461.50
2022-09-15T03:33:46.442Z,99459.94
2022-09-15T03:36:12.935Z,99460.91
2022-09-15T03:38:39.713Z,99461.09
2022-09-15T03:41:09.636Z,99460.59
2022-09-15T03:43:37.419Z,99467.03
2022-09-15T03:46:05.563Z,99462.47
2022-09-15T03:48:34.921Z,99466.50
2022-09-15T03:51:05.647Z,99457.97
2022-09-15T03:53:34.315Z,99473.00
2022-09-15T03:56:33.187Z,99468.09
2022-09-15T03:59:01.813Z,99460.72
2022-09-15T04:01:29.756Z,99470.25
2022-09-15T04:03:56.666Z,99456.28
2022-09-15T04:06:24.845Z,99458.50
2022-09-15T04:08:53.120Z,99453.56
2022-09-15T04:11:22.563Z,99460.09
2022-09-15T04:13:49.321Z,99457.41
2022-09-15T04:16:19.536Z,99463.13
2022-09-15T04:18:46.764Z,99451.44
2022-09-15T04:21:15.956Z,99453.84
2022-09-15T04:23:43.416Z,99458.03
2022-09-15T04:26:23.512Z,99452.63
2022-09-15T04:28:50.389Z,99451.44
2022-09-15T04:31:18.213Z,99461.78
2022-09-15T04:33:45.452Z,99460.09
2022-09-15T04:36:15.506Z,99457.53
2022-09-15T04:38:42.601Z,99462.28
2022-09-15T04:41:09.917Z,99461.38
2022-09-15T04:43:36.588Z,99459.34
2022-09-15T04:46:03.312Z,99462.59
2022-09-15T04:48:30.967Z,99462.31
2022-09-15T04:51:02.137Z,99464.34
2022-09-15T04:53:28.773Z,99456.09
2022-09-15T04:56:06.252Z,99451.78
2022-09-15T04:58:38.141Z,99458.91
2022-09-15T05:01:19.616Z,99455.56
2022-09-15T05:03:46.833Z,99451.75
2022-09-15T05:06:17.079Z,99464.25
2022-09-15T05:08:47.782Z,99454.09
2022-09-15T05:11:14.727Z,99461.44
2022-09-15T05:13:41.800Z,99453.97
2022-09-15T05:16:20.361Z,99451.88
2022-09-15T05:18:49.032Z,99468.28
2022-09-15T05:21:18.012Z,99466.34
2022-09-15T05:23:44.785Z,99467.28
2022-09-15T05:26:13.545Z,99471.06
2022-09-15T05:28:40.751Z,99472.94
2022-09-15T05:31:12.593Z,99470.41
2022-09-15T05:33:39.463Z,99468.09
2022-09-15T05:36:07.146Z,99468.81
2022-09-15T05:38:34.042Z,99477.16
2022-09-15T05:41:20.989Z,99480.88
2022-09-15T05:43:48.742Z,99472.41
2022-09-15T05:46:16.441Z,99483.03
2022-09-15T05:48:43.103Z,99482.66
2022-09-15T05:51:09.970Z,99482.06
2022-09-15T05:53:37.469Z,99479.94
2022-09-15T05:56:06.566Z,99478.06
2022-09-15T05:58:33.690Z,99480.59
2022-09-15T06:01:05.486Z,99473.09
2022-09-15T06:03:32.205Z,99489.50
2022-09-15T06:05:59.879Z,99478.72
2022-09-15T06:08:33.604Z,99482.97
2022-09-15T06:11:07.937Z,99474.31
2022-09-15T06:13:34.784Z,99475.56
2022-09-15T06:16:04.216Z,99466.75
2022-09-15T06:18:30.795Z,99477.47
2022-09-15T06:20:57.399Z,99475.00
2022-09-15T06:23:23.919Z,99470.50
2022-09-15T06:25:50.537Z,99466.22
2022-09-15T06:28:17.051Z,99468.75
2022-09-15T06:30:48.825Z,99467.81
2022-09-15T06:33:16.069Z,99469.63
2022-09-15T06:35:42.965Z,99468.09
2022-09-15T06:38:09.555Z,99472.38
2022-09-15T06:40:36.524Z,99479.22
2022-09-15T06:43:03.113Z,99475.75
2022-09-15T06:45:30.261Z,99474.63
2022-09-15T06:48:20.141Z,99485.28
2022-09-15T06:50:43.648Z,99478.06
2022-09-15T06:53:10.881Z,99481.47
2022-09-15T06:55:37.754Z,99474.53
2022-09-15T06:58:04.504Z,99483.47
2022-09-15T07:00:31.018Z,99485.13
2022-09-15T07:02:57.702Z,99492.19
2022-09-15T07:05:25.675Z,99491.00
2022-09-15T07:07:52.462Z,99494.66
2022-09-15T07:10:18.939Z,99512.53
2022-09-15T07:12:46.115Z,99526.59
2022-09-15T07:15:12.645Z,99526.53
2022-09-15T07:17:39.511Z,99534.84
2022-09-15T07:20:06.196Z,99539.19
2022-09-15T07:22:32.698Z,99545.19
2022-09-15T07:24:59.199Z,99540.50
2022-09-15T07:27:31.359Z,99544.09
2022-09-15T07:29:58.802Z,99542.31
2022-09-15T07:32:25.486Z,99549.69
2022-09-15T07:34:56.512Z,99539.34
2022-09-15T07:37:24.686Z,99541.06
2022-09-15T07:39:51.397Z,99543.78
2022-09-15T07:42:17.950Z,99545.94
2022-09-15T07:44:45.132Z,99535.13
2022-09-15T07:47:11.622Z,99542.25
2022-09-15T07:49:38.194Z,99539.38
2022-09-15T07:52:04.715Z,99536.59
2022-09-15T07:54:31.246Z,99537.84
2022-09-15T07:56:57.976Z,99533.97
2022-09-15T07:59:24.615Z,99529.50
2022-09-15T08:01:51.199Z,99540.69
2022-09-15T08:04:17.741Z,99531.53
2022-09-15T08:06:45.070Z,99529.59
2022-09-15T08:09:14.793Z,99535.31
2022-09-15T08:11:42.047Z,99534.25
2022-09-15T08:14:09.230Z,99530.84
2022-09-15T08:16:36.135Z,99536.06
2022-09-15T08:19:02.961Z,99538.34
2022-09-15T08:21:29.895Z,99539.00
2022-09-15T08:23:59.497Z,99544.31
2022-09-15T08:26:27.598Z,99546.72
2022-09-15T08:28:54.530Z,99548.94
2022-09-15T08:31:21.530Z,99551.91
2022-09-15T08:33:53.867Z,99548.94
2022-09-15T08:36:20.472Z,99544.31
2022-09-15T08:38:47.548Z,99546.59
2022-09-15T08:41:37.081Z,99556.06
2022-09-15T08:44:41.180Z,99561.38
2022-09-15T08:47:23.575Z,99570.53
2022-09-15T08:50:05.296Z,99579.38
2022-09-15T08:52:38.548Z,99577.00
2022-09-15T08:55:17.555Z,99582.00
2022-09-15T08:57:44.971Z,99585.00
2022-09-15T09:00:16.552Z,99574.56
2022-09-15T09:03:17.780Z,99574.88
2022-09-15T09:06:26.077Z,99572.09
2022-09-15T09:09:34.419Z,99564.44
2022-09-15T09:12:22.956Z,99563.38
2022-09-15T09:15:15.054Z,99566.50
2022-09-15T09:18:21.171Z,99557.97
2022-09-15T09:20:59.776Z,99557.38
2022-09-15T09:23:30.025Z,99551.53
2022-09-15T09:25:57.792Z,99554.41
2022-09-15T09:28:30.289Z,99552.53
2022-09-15T09:31:01.726Z,99547.16
2022-09-15T09:33:38.773Z,99546.00
2022-09-15T09:36:05.702Z,99544.06
2022-09-15T09:38:36.619Z,99546.94
2022-09-15T09:41:13.610Z,99546.72
2022-09-15T09:43:42.973Z,99544.16
2022-09-15T09:46:16.148Z,99552.41
2022-09-15T09:48:56.319Z,99548.16
2022-09-15T09:51:31.074Z,99547.50
2022-09-15T09:54:10.031Z,99552.81
2022-09-15T09:56:36.590Z,99554.03
2022-09-15T09:59:03.602Z,99565.94
2022-09-15T10:01:30.687Z,99572.28
2022-09-15T10:04:17.811Z,99565.91
2022-09-15T10:06:45.390Z,99565.94
2022-09-15T10:09:19.245Z,99563.13
2022-09-15T10:11:48.654Z,99563.47
2022-09-15T10:14:30.721Z,99559.50
2022-09-15T10:17:16.487Z,99568.22
2022-09-15T10:19:42.941Z,99571.88
2022-09-15T10:22:10.150Z,99569.41
2022-09-15T10:24:39.821Z,99573.25
2022-09-15T10:27:16.071Z,99581.84
2022-09-15T10:29:42.599Z,99577.19
2022-09-15T10:32:28.962Z,99586.41
2022-09-15T10:35:19.420Z,99577.50
2022-09-15T10:38:15.874Z,99578.97
2022-09-15T10:40:48.150Z,99577.06
2022-09-15T10:43:24.591Z,99579.81
2022-09-15T10:46:03.557Z,99575.94
2022-09-15T10:49:04.582Z,99566.91
2022-09-15T10:51:52.075Z,99566.34
2022-09-15T10:54:35.330Z,99561.63
2022-09-15T10:57:19.008Z,99564.94
2022-09-15T10:59:53.640Z,99566.72
2022-09-15T11:02:27.159Z,99573.34
2022-09-15T11:05:12.317Z,99577.19
2022-09-15T11:07:49.198Z,99563.56
2022-09-15T11:10:27.589Z,99563.19
2022-09-15T11:13:00.089Z,99559.56
2022-09-15T11:15:52.085Z,99565.97
2022-09-15T11:18:39.355Z,99567.59
2022-09-15T11:21:24.312Z,99561.31
2022-09-15T11:24:00.944Z,99570.03
2022-09-15T11:26:36.312Z,99573.19
2022-09-15T11:29:14.831Z,99560.94
2022-09-15T11:31:44.041Z,99557.28
2022-09-15T11:34:19.436Z,99554.25
2022-09-15T11:36:53.495Z,99548.81
2022-09-15T11:39:35.001Z,99557.34
2022-09-15T11:42:33.342Z,99555.72
2022-09-15T11:45:02.043Z,99565.53
2022-09-15T11:47:36.578Z,99571.03
2022-09-15T11:50:16.450Z,99560.44
2022-09-15T11:52:46.156Z,99564.00
2022-09-15T11:55:49.364Z,99559.63
2022-09-15T11:58:46.326Z,99560.19
2022-09-15T12:01:21.577Z,99556.53
2022-09-15T12:03:50.554Z,99550.03
2022-09-15T12:06:51.105Z,99563.72
2022-09-15T12:09:19.680Z,99561.34
2022-09-15T12:11:48.406Z,99554.69
2022-09-15T12:14:30.352Z,99551.72
2022-09-15T12:16:58.015Z,99564.28
2022-09-15T12:19:33.483Z,99559.97
2022-09-15T12:22:14.776Z,99574.31
2022-09-15T12:25:04.416Z,99598.66
2022-09-15T12:27:31.133Z,99607.19
2022-09-15T12:30:00.773Z,99611.75
2022-09-15T12:32:29.275Z,99615.59
2022-09-15T12:35:17.558Z,99615.19
2022-09-15T12:37:58.770Z,99611.94
2022-09-15T12:43:23.610Z,99610.63
2022-09-15T12:45:57.113Z,99602.97
2022-09-15T12:48:30.977Z,99605.94
2022-09-15T12:51:12.678Z,99606.06
2022-09-15T12:53:51.309Z,99608.28
2022-09-15T12:56:27.887Z,99597.97
2022-09-15T12:58:55.798Z,99602.66
2022-09-15T13:01:22.321Z,99601.19
2022-09-15T13:03:49.372Z,99602.13
2022-09-15T13:06:31.547Z,99600.25
2022-09-15T13:09:01.333Z,99596.03
2022-09-15T13:11:37.448Z,99599.91
2022-09-15T13:14:04.162Z,99600.59
2022-09-15T13:16:54.768Z,99597.72
2022-09-15T13:19:33.283Z,99593.72
2022-09-15T13:22:11.724Z,99589.97
2022-09-15T13:24:59.020Z,99588.97
2022-09-15T13:27:35.567Z,99594.44
2022-09-15T13:30:21.568Z,99588.44
2022-09-15T13:39:45.457Z,99588.50
2022-09-15T13:42:49.605Z,99586.13
2022-09-15T13:45:26.775Z,99578.22
2022-09-15T13:48:01.462Z,99573.78
2022-09-15T13:50:44.963Z,99568.94
2022-09-15T13:53:44.565Z,99561.50
2022-09-15T13:56:39.896Z,99567.75
2022-09-15T13:59:16.295Z,99572.22
2022-09-15T14:01:44.981Z,99564.97
2022-09-15T14:04:16.922Z,99575.91
2022-09-15T14:06:46.862Z,99572.47
2022-09-15T14:09:20.162Z,99565.75
2022-09-15T14:11:57.800Z,99576.47
2022-09-15T14:14:27.149Z,99570.19
2022-09-15T14:16:56.078Z,99563.94
2022-09-15T14:19:37.666Z,99569.56
2022-09-15T14:22:27.725Z,99568.50
2022-09-15T14:24:56.458Z,99562.28
2022-09-15T14:27:33.562Z,99569.47
2022-09-15T14:30:09.447Z,99570.28
2022-09-15T14:32:39.910Z,99573.03
2022-09-15T14:35:14.959Z,99571.03
2022-09-15T14:37:57.398Z,99573.78
2022-09-15T14:40:26.954Z,99571.75
2022-09-15T14:42:54.501Z,99575.50
2022-09-15T14:48:18.303Z,99577.75
2022-09-15T14:50:53.210Z,99576.75
2022-09-15T14:53:24.633Z,99580.81
2022-09-15T14:55:57.057Z,99575.91
2022-09-15T14:58:35.350Z,99577.88
2022-09-15T15:01:15.484Z,99579.09
2022-09-15T15:03:55.283Z,99585.56
2022-09-15T15:06:30.033Z,99595.00
2022-09-15T15:09:15.019Z,99590.78
2022-09-15T15:11:43.678Z,99611.00
2022-09-15T15:14:12.743Z,99589.59
2022-09-15T15:16:51.483Z,99595.97
2022-09-15T15:19:37.760Z,99593.84
2022-09-15T15:22:23.663Z,99595.91
2022-09-15T15:24:52.617Z,99605.31
2022-09-15T15:27:25.042Z,99607.63
2022-09-15T15:29:52.773Z,99594.75
2022-09-15T15:32:25.073Z,99603.16
2022-09-15T15:34:54.345Z,99611.50
2022-09-15T15:37:26.425Z,99618.34
2022-09-15T15:39:54.604Z,99608.25
2022-09-15T15:42:21.909Z,99607.03
2022-09-15T15:45:17.382Z,99598.16
2022-09-15T15:47:43.877Z,99602.66
2022-09-15T15:50:14.397Z,99607.38
2022-09-15T15:52:41.988Z,99598.22
2022-09-15T15:55:16.602Z,99598.13
2022-09-15T15:57:44.914Z,99591.38
2022-09-15T16:00:21.750Z,99597.75
2022-09-15T16:02:49.850Z,99602.91
2022-09-15T16:05:16.686Z,99598.84
2022-09-15T16:07:45.849Z,99607.22
2022-09-15T16:10:24.395Z,99597.56
2022-09-15T16:12:50.905Z,99602.88
2022-09-15T16:15:20.454Z,99605.47
2022-09-15T16:17:48.343Z,99604.28
2022-09-15T16:20:16.724Z,99608.00
2022-09-15T16:22:44.227Z,99609.03
2022-09-15T16:25:34.500Z,99611.94
2022-09-15T16:28:01.657Z,99604.81
2022-09-15T16:30:28.367Z,99606.59
2022-09-15T16:32:55.394Z,99604.97
2022-09-15T16:35:31.199Z,99604.97
2022-09-15T16:37:58.127Z,99597.28
2022-09-15T16:40:24.889Z,99608.38
2022-09-15T16:42:51.645Z,99611.50
2022-09-15T16:45:25.029Z,99595.69
2022-09-15T16:47:51.638Z,99606.94
2022-09-15T16:50:18.315Z,99610.00
2022-09-15T16:52:44.860Z,99611.44
2022-09-15T16:55:21.266Z,99602.84
2022-09-15T16:57:47.769Z,99611.38
2022-09-15T17:00:14.791Z,99607.78
2022-09-15T17:02:41.744Z,99608.25
2022-09-15T17:05:32.461Z,99617.28
2022-09-15T17:07:58.985Z,99602.81
2022-09-15T17:10:25.601Z,99612.47
2022-09-15T17:12:52.379Z,99609.72
2022-09-15T17:15:28.300Z,99608.56
2022-09-15T17:17:56.541Z,99613.53
2022-09-15T17:20:25.044Z,99634.00
2022-09-15T17:22:52.806Z,99642.19
2022-09-15T17:25:30.190Z,99622.88
2022-09-15T17:27:58.405Z,99622.63
2022-09-15T17:30:27.859Z,99614.72
2022-09-15T17:33:16.187Z,99614.34
2022-09-15T17:35:43.108Z,99593.09
2022-09-15T17:38:09.631Z,99603.91
2022-09-15T17:40:36.803Z,99604.78
2022-09-15T17:43:04.553Z,99601.63
2022-09-15T17:45:34.553Z,99610.31
2022-09-15T17:48:02.855Z,99607.13
2022-09-15T17:50:32.426Z,99607.50
2022-09-15T17:52:59.373Z,99610.94
2022-09-15T17:55:32.102Z,99618.00
2022-09-15T17:58:01.001Z,99620.69
2022-09-15T18:00:31.905Z,99623.06
2022-09-15T18:03:01.514Z,99619.00
2022-09-15T18:05:30.860Z,99621.97
2022-09-15T18:08:00.026Z,99624.94
2022-09-15T18:10:28.142Z,99632.59
2022-09-15T18:12:55.799Z,99626.41
2022-09-15T18:15:25.896Z,99620.81
2022-09-15T18:17:57.761Z,99625.69
2022-09-15T18:20:27.105Z,99617.53
2022-09-15T18:22:54.658Z,99625.81
2022-09-15T18:25:28.225Z,99625.84
2022-09-15T18:27:55.445Z,99628.16
2022-09-15T18:30:24.114Z,99631.75
2022-09-15T18:32:50.923Z,99631.22
2022-09-15T18:35:20.082Z,99639.16
2022-09-15T18:37:49.288Z,99644.03
2022-09-15T18:40:17.996Z,99646.69
2022-09-15T18:42:45.806Z,99649.63
2022-09-15T18:45:15.085Z,99652.00
2022-09-15T18:47:42.531Z,99644.22
2022-09-15T18:50:11.805Z,99651.38
2022-09-15T18:52:40.709Z,99656.88
2022-09-15T18:55:11.278Z,99654.56
2022-09-15T18:57:40.169Z,99649.41
2022-09-15T19:00:10.397Z,99654.38
2022-09-15T19:02:37.091Z,99663.22
2022-09-15T19:05:03.819Z,99658.78
2022-09-15T19:07:30.682Z,99667.00
2022-09-15T19:09:57.781Z,99672.03
2022-09-15T19:12:24.420Z,99674.81
2022-09-15T19:14:51.003Z,99666.59
2022-09-15T19:17:17.653Z,99667.66
2022-09-15T19:19:46.274Z,99672.13
2022-09-15T19:22:13.152Z,99662.84
2022-09-15T19:24:39.682Z,99660.00
2022-09-15T19:27:08.453Z,99671.13
2022-09-15T19:29:36.728Z,99659.78
2022-09-15T19:32:10.045Z,99654.16
2022-09-15T19:34:38.617Z,99642.97
2022-09-15T19:37:11.360Z,99651.50
2022-09-15T19:39:40.145Z,99654.28
2022-09-15T19:42:07.958Z,99654.72
2022-09-15T19:44:34.600Z,99656.94
2022-09-15T19:47:01.177Z,99659.66
2022-09-15T19:49:27.792Z,99658.88
2022-09-15T19:51:55.451Z,99663.84
2022-09-15T19:54:23.702Z,99669.25
2022-09-15T19:56:51.079Z,99671.34
2022-09-15T19:59:18.499Z,99669.75
2022-09-15T20:01:45.849Z,99670.25
2022-09-15T20:04:13.858Z,99663.09
2022-09-15T20:06:40.471Z,99664.38
2022-09-15T20:09:08.652Z,99656.69
2022-09-15T20:11:36.000Z,99655.66
2022-09-15T20:14:02.715Z,99664.59
2022-09-15T20:16:29.829Z,99659.44
2022-09-15T20:18:57.291Z,99668.34
2022-09-15T20:21:48.726Z,99669.38
2022-09-15T20:24:15.831Z,99660.25
2022-09-15T20:26:42.730Z,99667.50
2022-09-15T20:29:10.477Z,99670.56
2022-09-15T20:31:37.726Z,99662.00
2022-09-15T20:34:04.920Z,99661.34
2022-09-15T20:36:35.404Z,99668.22
2022-09-15T20:39:03.967Z,99669.19
2022-09-15T20:41:31.831Z,99669.09
2022-09-15T20:43:58.586Z,99669.56
2022-09-15T20:46:25.210Z,99670.22
2022-09-15T20:48:52.859Z,99671.63
2022-09-15T20:51:22.771Z,99671.09
2022-09-15T20:53:54.260Z,99667.16
2022-09-15T20:56:24.889Z,99673.34
2022-09-15T20:58:57.150Z,99669.19
2022-09-15T21:01:29.071Z,99670.88
2022-09-15T21:03:55.753Z,99671.06
2022-09-15T21:06:25.668Z,99673.50
2022-09-15T21:08:53.389Z,99669.13
2022-09-15T21:11:21.868Z,99671.63
2022-09-15T21:13:49.218Z,99663.97
2022-09-15T21:16:21.629Z,99670.16
2022-09-15T21:18:49.141Z,99676.88
2022-09-15T21:21:21.334Z,99679.19
2022-09-15T21:23:50.253Z,99685.03
2022-09-15T21:26:19.227Z,99680.00
2022-09-15T21:28:46.165Z,99679.72
2022-09-15T21:31:18.786Z,99678.22
2022-09-15T21:33:46.839Z,99679.63
2022-09-15T21:36:22.200Z,99686.28
2022-09-15T21:38:50.671Z,99697.16
2022-09-15T21:41:20.721Z,99686.16
2022-09-15T21:43:48.330Z,99692.94
2022-09-15T21:46:18.256Z,99694.06
2022-09-15T21:48:47.973Z,99694.59
2022-09-15T21:51:23.521Z,99690.22
2022-09-15T21:53:52.849Z,99692.47
2022-09-15T21:56:19.504Z,99697.84
2022-09-15T21:58:46.010Z,99701.78
2022-09-15T22:01:18.912Z,99701.66
2022-09-15T22:03:53.761Z,99706.50
2022-09-15T22:06:22.485Z,99704.19
2022-09-15T22:08:49.244Z,99712.72
2022-09-15T22:11:15.799Z,99711.72
2022-09-15T22:13:44.514Z,99708.34
2022-09-15T22:16:16.712Z,99712.88
2022-09-15T22:18:44.242Z,99708.97
2022-09-15T22:21:16.759Z,99698.59
2022-09-15T22:23:44.876Z,99709.59
2022-09-15T22:26:14.276Z,99705.69
2022-09-15T22:28:41.029Z,99698.44
2022-09-15T22:31:10.178Z,99705.28
2022-09-15T22:33:38.586Z,99703.84
2022-09-15T22:36:06.162Z,99705.91
2022-09-15T22:38:32.649Z,99704.66
2022-09-15T22:41:11.951Z,99704.28
2022-09-15T22:43:39.545Z,99707.38
2022-09-15T22:46:06.571Z,99706.34
2022-09-15T22:48:33.966Z,99705.94
2022-09-15T22:51:01.551Z,99703.22
2022-09-15T22:53:28.227Z,99705.09
2022-09-15T22:56:14.434Z,99709.88
2022-09-15T22:58:43.846Z,99706.34
2022-09-15T23:01:19.587Z,99706.97
2022-09-15T23:03:55.605Z,99714.44
2022-09-15T23:06:22.831Z,99717.16
2022-09-15T23:08:58.234Z,99717.13
2022-09-15T23:11:26.393Z,99710.50
2022-09-15T23:13:54.365Z,99713.81
2022-09-15T23:16:23.075Z,99702.16
2022-09-15T23:18:50.682Z,99704.66
2022-09-15T23:21:17.340Z,99708.22
2022-09-15T23:23:47.592Z,99712.78
2022-09-15T23:26:16.638Z,99694.69
2022-09-15T23:28:43.142Z,99697.59
2022-09-15T23:31:12.173Z,99693.06
2022-09-15T23:33:39.697Z,99695.72
2022-09-15T23:36:09.973Z,99700.88
2022-09-15T23:38:38.130Z,99700.00
2022-09-15T23:41:05.071Z,99693.66
2022-09-15T23:43:33.133Z,99686.94
2022-09-15T23:46:00.388Z,99688.47
2022-09-15T23:48:27.555Z,99688.50
2022-09-15T23:50:54.335Z,99693.66
2022-09-15T23:53:20.847Z,99690.50
2022-09-15T23:55:47.649Z,99690.94
2022-09-15T23:58:14.466Z,99690.88
